createdAt,value
2018-05-10T00:00:20.337Z,13.80
2018-05-10T00:02:48.613Z,13.80
2018-05-10T00:05:16.879Z,13.80
2018-05-10T00:07:45.144Z,13.80
2018-05-10T00:10:13.405Z,13.80
2018-05-10T00:12:42.453Z,13.70
2018-05-10T00:15:10.735Z,13.70
2018-05-10T00:17:39.000Z,13.70
2018-05-10T00:20:07.270Z,13.70
2018-05-10T00:22:35.527Z,13.70
2018-05-10T00:25:03.784Z,13.60
2018-05-10T00:27:32.055Z,13.60
2018-05-10T00:30:00.324Z,13.50
2018-05-10T00:32:29.352Z,13.40
2018-05-10T00:34:57.608Z,13.30
2018-05-10T00:37:25.888Z,13.30
2018-05-10T00:39:54.150Z,13.30
2018-05-10T00:42:22.431Z,13.40
2018-05-10T00:44:50.693Z,13.40
2018-05-10T00:47:19.738Z,13.30
2018-05-10T00:49:47.999Z,13.30
2018-05-10T00:52:16.274Z,13.30
2018-05-10T00:54:54.429Z,13.30
2018-05-10T00:57:22.695Z,13.30
2018-05-10T00:59:50.956Z,13.30
2018-05-10T01:02:19.226Z,13.30
2018-05-10T01:04:47.503Z,13.40
2018-05-10T01:07:15.761Z,13.30
2018-05-10T01:09:44.017Z,13.30
2018-05-10T01:12:12.282Z,13.30
2018-05-10T01:14:40.551Z,13.20
2018-05-10T01:17:09.585Z,13.10
2018-05-10T01:19:37.860Z,13.10
2018-05-10T01:22:06.113Z,13.10
2018-05-10T01:24:34.379Z,13.10
2018-05-10T01:27:03.400Z,13.00
2018-05-10T01:29:31.672Z,12.90
2018-05-10T01:31:59.941Z,12.90
2018-05-10T01:34:28.209Z,12.80
2018-05-10T01:36:56.469Z,12.70
2018-05-10T01:39:25.501Z,12.70
2018-05-10T01:41:53.770Z,12.70
2018-05-10T01:44:22.066Z,12.70
2018-05-10T01:46:50.333Z,12.60
2018-05-10T01:49:18.606Z,12.70
2018-05-10T01:51:46.876Z,12.60
2018-05-10T01:54:15.150Z,12.60
2018-05-10T01:56:43.414Z,12.50
2018-05-10T01:59:11.684Z,12.50
2018-05-10T02:01:39.937Z,12.50
2018-05-10T02:04:08.971Z,12.40
2018-05-10T02:06:37.236Z,12.30
2018-05-10T02:09:05.522Z,12.30
2018-05-10T02:11:33.800Z,12.30
2018-05-10T02:14:02.066Z,12.30
2018-05-10T02:16:30.333Z,12.30
2018-05-10T02:18:58.596Z,12.20
2018-05-10T02:21:27.628Z,12.30
2018-05-10T02:23:56.658Z,12.30
2018-05-10T02:26:24.934Z,12.30
2018-05-10T02:28:53.190Z,12.40
2018-05-10T02:31:21.471Z,12.30
2018-05-10T02:33:49.738Z,12.30
2018-05-10T02:36:18.098Z,12.20
2018-05-10T02:38:46.277Z,12.20
2018-05-10T02:41:14.564Z,12.20
2018-05-10T02:43:42.816Z,12.20
2018-05-10T02:46:11.097Z,12.20
2018-05-10T02:48:39.366Z,12.20
2018-05-10T02:51:07.633Z,12.10
2018-05-10T02:53:35.890Z,12.00
2018-05-10T02:56:04.925Z,12.00
2018-05-10T02:58:33.197Z,12.00
2018-05-10T03:01:01.457Z,11.90
2018-05-10T03:03:29.734Z,11.90
2018-05-10T03:05:58.006Z,11.90
2018-05-10T03:08:26.271Z,11.80
2018-05-10T03:10:54.528Z,11.70
2018-05-10T03:13:23.573Z,11.80
2018-05-10T03:15:51.839Z,11.80
2018-05-10T03:18:20.114Z,11.80
2018-05-10T03:20:48.410Z,11.70
2018-05-10T03:23:16.685Z,11.70
2018-05-10T03:25:44.940Z,11.70
2018-05-10T03:28:13.208Z,11.70
2018-05-10T03:30:41.484Z,11.70
2018-05-10T03:33:09.801Z,11.70
2018-05-10T03:35:38.025Z,11.50
2018-05-10T03:38:06.294Z,11.50
2018-05-10T03:40:35.363Z,11.50
2018-05-10T03:43:03.590Z,11.40
2018-05-10T03:45:31.844Z,11.40
2018-05-10T03:48:00.117Z,11.40
2018-05-10T03:50:29.149Z,11.40
2018-05-10T03:52:57.400Z,11.30
2018-05-10T03:55:25.683Z,11.40
2018-05-10T03:57:53.954Z,11.40
2018-05-10T04:00:22.969Z,11.30
2018-05-10T04:06:39.465Z,11.20
2018-05-10T04:09:25.580Z,11.00
2018-05-10T04:11:53.830Z,11.10
2018-05-10T04:14:22.840Z,11.20
2018-05-10T04:16:51.092Z,11.20
2018-05-10T04:19:20.121Z,11.30
2018-05-10T04:21:48.368Z,11.30
2018-05-10T04:24:17.385Z,11.50
2018-05-10T04:26:45.618Z,11.50
2018-05-10T04:29:14.635Z,11.30
2018-05-10T04:31:42.904Z,11.30
2018-05-10T04:34:11.936Z,11.40
2018-05-10T04:36:40.177Z,11.40
2018-05-10T04:39:08.415Z,11.50
2018-05-10T04:41:36.674Z,11.50
2018-05-10T04:44:04.916Z,11.50
2018-05-10T04:46:33.178Z,11.60
2018-05-10T04:49:01.428Z,11.60
2018-05-10T04:51:29.682Z,11.70
2018-05-10T04:53:57.928Z,11.80
2018-05-10T04:56:26.175Z,11.90
2018-05-10T04:58:54.425Z,11.90
2018-05-10T05:01:22.676Z,12.00
2018-05-10T05:03:50.917Z,12.00
2018-05-10T05:06:19.166Z,12.00
2018-05-10T05:08:48.246Z,12.00
2018-05-10T05:11:16.438Z,12.00
2018-05-10T05:13:45.449Z,12.30
2018-05-10T05:16:13.698Z,12.30
2018-05-10T05:18:42.707Z,12.60
2018-05-10T05:21:10.967Z,12.60
2018-05-10T05:23:39.980Z,12.80
2018-05-10T05:26:08.225Z,12.80
2018-05-10T05:28:36.470Z,12.80
2018-05-10T05:31:04.724Z,12.90
2018-05-10T05:33:32.962Z,13.10
2018-05-10T05:36:02.000Z,13.40
2018-05-10T05:38:30.243Z,13.40
2018-05-10T05:40:58.553Z,13.50
2018-05-10T05:43:26.867Z,13.40
2018-05-10T05:45:54.994Z,13.40
2018-05-10T05:48:23.248Z,13.50
2018-05-10T05:50:52.257Z,13.90
2018-05-10T05:53:20.500Z,13.80
2018-05-10T05:55:49.499Z,14.20
2018-05-10T05:58:18.508Z,14.40
2018-05-10T06:00:46.750Z,14.40
2018-05-10T06:03:15.010Z,14.70
2018-05-10T06:05:43.239Z,14.70
2018-05-10T06:08:11.490Z,14.70
2018-05-10T06:10:40.495Z,14.60
2018-05-10T06:13:08.755Z,14.50
2018-05-10T06:15:37.101Z,14.90
2018-05-10T06:18:05.230Z,15.00
2018-05-10T06:20:33.473Z,15.20
2018-05-10T06:23:01.725Z,15.30
2018-05-10T06:25:29.965Z,15.20
2018-05-10T06:27:58.215Z,15.00
2018-05-10T06:30:27.219Z,14.90
2018-05-10T06:32:55.494Z,14.90
2018-05-10T06:35:24.504Z,15.00
2018-05-10T06:37:52.748Z,15.00
2018-05-10T06:40:21.760Z,14.90
2018-05-10T06:42:49.996Z,14.90
2018-05-10T06:45:18.256Z,15.00
2018-05-10T06:47:47.265Z,15.20
2018-05-10T06:50:15.521Z,15.20
2018-05-10T06:52:43.752Z,15.20
2018-05-10T06:55:12.007Z,15.10
2018-05-10T06:57:41.020Z,15.20
2018-05-10T07:00:09.269Z,15.20
2018-05-10T07:02:38.275Z,15.60
2018-05-10T07:05:07.289Z,15.70
2018-05-10T07:07:35.532Z,15.70
2018-05-10T07:10:03.801Z,15.80
2018-05-10T07:12:32.017Z,15.80
2018-05-10T07:15:00.273Z,15.80
2018-05-10T07:17:29.373Z,16.00
2018-05-10T07:19:57.531Z,16.00
2018-05-10T07:22:26.548Z,16.20
2018-05-10T07:24:54.804Z,16.10
2018-05-10T07:27:23.807Z,16.00
2018-05-10T07:29:52.057Z,16.00
2018-05-10T07:32:20.314Z,16.10
2018-05-10T07:34:48.555Z,16.20
2018-05-10T07:37:16.793Z,16.40
2018-05-10T07:39:45.811Z,16.80
2018-05-10T07:42:14.043Z,16.80
2018-05-10T07:44:42.295Z,16.80
2018-05-10T07:47:10.542Z,16.90
2018-05-10T07:49:38.799Z,16.90
2018-05-10T07:52:07.808Z,17.10
2018-05-10T07:54:36.056Z,17.10
2018-05-10T07:57:05.070Z,17.40
2018-05-10T07:59:33.308Z,17.40
2018-05-10T08:02:01.557Z,17.50
2018-05-10T08:04:29.797Z,17.60
2018-05-10T08:06:58.049Z,17.50
2018-05-10T08:09:27.055Z,17.60
2018-05-10T08:11:55.308Z,17.60
2018-05-10T08:14:23.549Z,17.80
2018-05-10T08:16:51.806Z,17.80
2018-05-10T08:19:20.041Z,17.80
2018-05-10T08:21:49.051Z,18.10
2018-05-10T08:24:17.376Z,18.10
2018-05-10T08:26:45.553Z,18.10
2018-05-10T08:29:13.805Z,18.30
2018-05-10T08:31:42.070Z,18.50
2018-05-10T08:34:10.303Z,18.70
2018-05-10T08:36:38.553Z,18.70
2018-05-10T08:39:06.809Z,19.00
2018-05-10T08:41:35.059Z,18.70
2018-05-10T08:44:03.316Z,18.60
2018-05-10T08:46:31.550Z,18.70
2018-05-10T08:48:59.801Z,18.60
2018-05-10T08:51:28.075Z,18.70
2018-05-10T08:53:56.328Z,18.70
2018-05-10T08:56:25.333Z,19.00
2018-05-10T08:58:53.579Z,19.00
2018-05-10T09:01:22.587Z,19.10
2018-05-10T09:03:51.606Z,19.10
2018-05-10T09:06:19.847Z,19.10
2018-05-10T09:08:48.863Z,19.30
2018-05-10T09:11:17.099Z,19.20
2018-05-10T09:13:45.353Z,19.30
2018-05-10T09:16:13.601Z,19.20
2018-05-10T09:18:41.842Z,19.50
2018-05-10T09:21:10.849Z,19.80
2018-05-10T09:23:39.853Z,19.80
2018-05-10T09:26:08.091Z,19.80
2018-05-10T09:28:36.351Z,19.90
2018-05-10T09:31:04.591Z,20.00
2018-05-10T09:33:32.831Z,19.90
2018-05-10T09:36:01.844Z,20.60
2018-05-10T09:38:30.087Z,20.60
2018-05-10T09:40:58.328Z,20.50
2018-05-10T09:43:26.581Z,20.60
2018-05-10T09:45:54.825Z,20.40
2018-05-10T09:48:23.836Z,20.60
2018-05-10T09:50:52.099Z,20.60
2018-05-10T09:53:21.104Z,20.50
2018-05-10T09:55:49.364Z,20.50
2018-05-10T09:58:18.379Z,20.60
2018-05-10T10:00:46.635Z,20.50
2018-05-10T10:03:15.649Z,20.70
2018-05-10T10:05:43.899Z,20.70
2018-05-10T10:08:12.908Z,21.10
2018-05-10T10:10:41.160Z,21.10
2018-05-10T10:13:10.171Z,21.00
2018-05-10T10:15:39.235Z,20.90
2018-05-10T10:18:07.428Z,20.90
2018-05-10T10:20:36.445Z,20.60
2018-05-10T10:23:04.684Z,20.60
2018-05-10T10:25:32.927Z,20.70
2018-05-10T10:28:01.184Z,21.20
2018-05-10T10:30:29.421Z,21.40
2018-05-10T10:32:58.435Z,20.40
2018-05-10T10:35:26.677Z,20.40
2018-05-10T10:37:54.916Z,20.30
2018-05-10T10:40:23.163Z,20.20
2018-05-10T10:42:51.412Z,20.70
2018-05-10T10:45:20.421Z,21.50
2018-05-10T10:47:49.435Z,21.00
2018-05-10T10:50:17.681Z,20.90
2018-05-10T10:52:46.703Z,21.30
2018-05-10T10:55:14.935Z,21.30
2018-05-10T10:57:43.182Z,21.80
2018-05-10T11:00:11.432Z,22.00
2018-05-10T11:02:39.686Z,21.90
2018-05-10T11:05:08.683Z,21.90
2018-05-10T11:07:36.936Z,21.80
2018-05-10T11:10:05.945Z,22.30
2018-05-10T11:12:34.200Z,22.30
2018-05-10T11:15:02.460Z,21.70
2018-05-10T11:17:30.694Z,21.10
2018-05-10T11:19:58.939Z,21.00
2018-05-10T11:22:27.955Z,20.80
2018-05-10T11:24:56.207Z,20.80
2018-05-10T11:27:25.286Z,20.60
2018-05-10T11:29:53.455Z,20.60
2018-05-10T11:32:21.707Z,19.40
2018-05-10T11:34:49.959Z,18.60
2018-05-10T11:37:18.196Z,18.30
2018-05-10T11:39:47.212Z,18.00
2018-05-10T11:42:15.468Z,18.00
2018-05-10T11:44:44.471Z,17.70
2018-05-10T11:47:12.725Z,17.70
2018-05-10T11:49:40.976Z,17.20
2018-05-10T11:52:09.214Z,16.70
2018-05-10T11:54:37.479Z,15.20
2018-05-10T11:57:05.741Z,14.60
2018-05-10T11:59:34.780Z,14.30
2018-05-10T12:02:03.049Z,14.30
2018-05-10T12:04:31.314Z,14.20
2018-05-10T12:06:59.579Z,14.30
2018-05-10T12:09:27.849Z,14.40
2018-05-10T12:11:56.100Z,14.40
2018-05-10T12:14:25.132Z,14.60
2018-05-10T12:16:53.396Z,14.60
2018-05-10T12:19:21.664Z,14.70
2018-05-10T12:21:50.687Z,14.80
2018-05-10T12:24:18.955Z,14.80
2018-05-10T12:26:47.218Z,14.90
2018-05-10T12:29:15.476Z,15.00
2018-05-10T12:31:44.504Z,15.40
2018-05-10T12:34:12.777Z,15.40
2018-05-10T12:36:41.031Z,15.50
2018-05-10T12:39:09.287Z,15.50
2018-05-10T12:41:38.363Z,15.70
2018-05-10T12:44:06.571Z,15.70
2018-05-10T12:46:34.842Z,15.90
2018-05-10T12:49:03.866Z,16.40
2018-05-10T12:51:32.128Z,16.30
2018-05-10T12:54:00.380Z,16.60
2018-05-10T12:56:29.544Z,17.00
2018-05-10T12:58:57.673Z,17.00
2018-05-10T13:01:25.941Z,17.30
2018-05-10T13:03:54.964Z,18.10
2018-05-10T13:06:23.230Z,18.10
2018-05-10T13:08:51.490Z,17.70
2018-05-10T13:11:19.752Z,18.00
2018-05-10T13:13:48.777Z,17.00
2018-05-10T13:16:17.072Z,16.90
2018-05-10T13:18:45.304Z,16.80
2018-05-10T13:21:14.331Z,17.50
2018-05-10T13:23:42.587Z,17.50
2018-05-10T13:26:10.855Z,17.60
2018-05-10T13:28:39.107Z,17.60
2018-05-10T13:31:08.160Z,17.50
2018-05-10T13:33:36.423Z,17.50
2018-05-10T13:36:04.678Z,18.20
2018-05-10T13:38:32.951Z,18.20
2018-05-10T13:41:01.216Z,18.70
2018-05-10T13:43:30.267Z,19.20
2018-05-10T13:45:58.531Z,19.20
2018-05-10T13:48:26.795Z,19.20
2018-05-10T13:50:55.060Z,19.50
2018-05-10T13:53:23.327Z,19.00
2018-05-10T13:55:51.592Z,19.00
2018-05-10T13:58:19.856Z,18.90
2018-05-10T14:00:48.884Z,18.70
2018-05-10T14:03:17.152Z,18.70
2018-05-10T14:05:45.409Z,18.60
2018-05-10T14:08:14.448Z,19.30
2018-05-10T14:10:42.785Z,19.30
2018-05-10T14:13:10.959Z,19.80
2018-05-10T14:15:39.215Z,20.20
2018-05-10T14:18:08.249Z,20.00
2018-05-10T14:20:36.512Z,19.90
2018-05-10T14:23:04.784Z,20.60
2018-05-10T14:25:33.036Z,20.80
2018-05-10T14:28:02.055Z,21.30
2018-05-10T14:30:30.320Z,21.30
2018-05-10T14:32:59.342Z,21.40
2018-05-10T14:35:27.602Z,21.40
2018-05-10T14:37:55.856Z,21.20
2018-05-10T14:40:24.885Z,21.80
2018-05-10T14:42:53.144Z,21.80
2018-05-10T14:45:21.404Z,21.20
2018-05-10T14:47:50.425Z,19.90
2018-05-10T14:50:18.696Z,19.90
2018-05-10T14:52:46.956Z,19.80
2018-05-10T14:55:15.228Z,19.90
2018-05-10T14:57:44.248Z,19.10
2018-05-10T15:00:12.509Z,19.00
2018-05-10T15:02:40.764Z,19.40
2018-05-10T15:05:09.793Z,19.60
2018-05-10T15:07:38.053Z,19.60
2018-05-10T15:10:06.317Z,19.70
2018-05-10T15:12:35.334Z,19.10
2018-05-10T15:15:03.603Z,19.10
2018-05-10T15:17:31.863Z,19.50
2018-05-10T15:20:00.895Z,19.40
2018-05-10T15:22:29.160Z,19.40
2018-05-10T15:24:57.420Z,19.30
2018-05-10T15:27:25.683Z,19.30
2018-05-10T15:29:54.711Z,18.60
2018-05-10T15:32:22.978Z,18.60
2018-05-10T15:34:51.236Z,18.40
2018-05-10T15:37:19.500Z,18.20
2018-05-10T15:39:48.523Z,17.70
2018-05-10T15:42:16.792Z,17.70
2018-05-10T15:44:45.045Z,17.60
2018-05-10T15:47:14.074Z,17.50
2018-05-10T15:49:42.416Z,17.50
2018-05-10T15:52:11.360Z,17.30
2018-05-10T15:54:39.615Z,17.30
2018-05-10T15:57:07.876Z,17.10
2018-05-10T15:59:36.134Z,17.10
2018-05-10T16:02:05.164Z,16.80
2018-05-10T16:04:33.422Z,16.80
2018-05-10T16:07:02.460Z,16.50
2018-05-10T16:09:30.723Z,16.50
2018-05-10T16:11:59.803Z,16.40
2018-05-10T16:14:28.064Z,16.30
2018-05-10T16:16:56.315Z,16.30
2018-05-10T16:19:24.578Z,16.20
2018-05-10T16:21:52.835Z,16.10
2018-05-10T16:24:21.121Z,16.00
2018-05-10T16:26:49.376Z,15.90
2018-05-10T16:29:17.640Z,15.90
2018-05-10T16:31:45.910Z,15.90
2018-05-10T16:34:14.182Z,15.90
2018-05-10T16:36:43.191Z,15.90
2018-05-10T16:39:11.458Z,15.90
2018-05-10T16:41:39.725Z,15.70
2018-05-10T16:44:07.989Z,15.50
2018-05-10T16:46:36.244Z,15.40
2018-05-10T16:49:05.281Z,15.10
2018-05-10T16:51:33.539Z,15.10
2018-05-10T16:54:01.795Z,15.00
2018-05-10T16:56:30.822Z,15.00
2018-05-10T16:58:59.081Z,15.00
2018-05-10T17:01:27.343Z,14.90
2018-05-10T17:03:56.376Z,14.90
2018-05-10T17:06:24.635Z,14.90
2018-05-10T17:08:52.907Z,14.90
2018-05-10T17:11:21.185Z,14.80
2018-05-10T17:13:49.437Z,14.80
2018-05-10T17:16:18.463Z,14.70
2018-05-10T17:18:46.722Z,14.70
2018-05-10T17:21:14.980Z,14.70
2018-05-10T17:23:44.012Z,14.60
2018-05-10T17:26:12.279Z,14.60
2018-05-10T17:28:40.540Z,14.60
2018-05-10T17:31:08.809Z,14.60
2018-05-10T17:33:37.831Z,14.50
2018-05-10T17:36:06.100Z,14.50
2018-05-10T17:38:34.367Z,14.40
2018-05-10T17:41:02.631Z,14.40
2018-05-10T17:43:31.659Z,14.10
2018-05-10T17:45:59.936Z,14.10
2018-05-10T17:48:28.207Z,14.10
2018-05-10T17:50:56.465Z,14.10
2018-05-10T17:53:24.719Z,14.00
2018-05-10T17:55:53.756Z,14.00
2018-05-10T17:58:22.025Z,14.00
2018-05-10T18:00:50.375Z,13.90
2018-05-10T18:03:18.548Z,13.80
2018-05-10T18:05:47.580Z,13.60
2018-05-10T18:08:15.860Z,13.60
2018-05-10T18:10:44.107Z,13.60
2018-05-10T18:13:12.376Z,13.60
2018-05-10T18:15:40.645Z,13.50
2018-05-10T18:18:09.682Z,13.40
2018-05-10T18:20:37.943Z,13.40
2018-05-10T18:23:06.212Z,13.30
2018-05-10T18:25:34.468Z,13.10
2018-05-10T18:28:03.507Z,13.20
2018-05-10T18:30:31.771Z,13.20
2018-05-10T18:33:00.035Z,13.20
2018-05-10T18:35:28.297Z,13.20
2018-05-10T18:37:57.325Z,13.00
2018-05-10T18:40:25.596Z,13.10
2018-05-10T18:42:53.869Z,13.10
2018-05-10T18:45:22.129Z,13.10
2018-05-10T18:47:50.400Z,13.10
2018-05-10T18:50:18.670Z,13.20
2018-05-10T18:52:46.941Z,13.20
2018-05-10T18:55:16.013Z,13.10
2018-05-10T18:57:44.237Z,13.10
2018-05-10T19:00:12.503Z,13.00
2018-05-10T19:02:40.774Z,13.00
2018-05-10T19:05:09.029Z,13.00
2018-05-10T19:07:38.078Z,13.00
2018-05-10T19:10:06.340Z,13.00
2018-05-10T19:12:34.597Z,13.00
2018-05-10T19:15:02.876Z,13.00
2018-05-10T19:17:31.143Z,13.00
2018-05-10T19:19:59.417Z,13.00
2018-05-10T19:22:27.681Z,13.00
2018-05-10T19:24:56.717Z,13.00
2018-05-10T19:27:24.968Z,13.00
2018-05-10T19:29:53.241Z,13.00
2018-05-10T19:32:21.503Z,13.00
2018-05-10T19:34:50.536Z,12.90
2018-05-10T19:37:18.882Z,12.90
2018-05-10T19:39:47.076Z,12.90
2018-05-10T19:42:15.349Z,12.80
2018-05-10T19:44:43.618Z,12.80
2018-05-10T19:47:11.893Z,12.90
2018-05-10T19:49:40.159Z,12.80
2018-05-10T19:52:08.433Z,12.80
2018-05-10T19:54:37.468Z,12.90
2018-05-10T19:57:05.724Z,12.90
2018-05-10T19:59:34.001Z,12.90
2018-05-10T20:02:02.267Z,12.90
2018-05-10T20:04:30.546Z,12.90
2018-05-10T20:06:58.802Z,12.80
2018-05-10T20:09:27.829Z,12.70
2018-05-10T20:11:56.104Z,12.70
2018-05-10T20:14:24.368Z,12.60
2018-05-10T20:16:52.662Z,12.60
2018-05-10T20:19:20.904Z,12.60
2018-05-10T20:21:49.935Z,12.50
2018-05-10T20:24:18.196Z,12.40
2018-05-10T20:26:46.475Z,12.50
2018-05-10T20:29:14.740Z,12.50
2018-05-10T20:31:43.777Z,12.50
2018-05-10T20:34:12.042Z,12.50
2018-05-10T20:36:40.311Z,12.50
2018-05-10T20:39:08.578Z,12.50
2018-05-10T20:41:36.903Z,12.40
2018-05-10T20:44:05.116Z,12.50
2018-05-10T20:46:34.153Z,12.50
2018-05-10T20:49:02.407Z,12.50
2018-05-10T20:51:30.676Z,12.40
2018-05-10T20:53:58.936Z,12.40
2018-05-10T20:56:27.965Z,12.50
2018-05-10T20:58:56.227Z,12.50
2018-05-10T21:01:24.493Z,12.40
2018-05-10T21:03:52.763Z,12.40
2018-05-10T21:06:21.019Z,12.50
2018-05-10T21:08:50.059Z,12.40
2018-05-10T21:11:18.328Z,12.40
2018-05-10T21:13:46.608Z,12.40
2018-05-10T21:16:14.877Z,12.40
2018-05-10T21:18:43.140Z,12.40
2018-05-10T21:21:11.401Z,12.40
2018-05-10T21:23:40.441Z,12.40
2018-05-10T21:26:08.719Z,12.40
2018-05-10T21:28:36.975Z,12.40
2018-05-10T21:31:05.237Z,12.40
2018-05-10T21:33:33.499Z,12.40
2018-05-10T21:36:01.765Z,12.30
2018-05-10T21:38:30.796Z,12.30
2018-05-10T21:40:59.052Z,12.30
2018-05-10T21:43:27.320Z,12.30
2018-05-10T21:45:55.582Z,12.30
2018-05-10T21:48:24.623Z,12.20
2018-05-10T21:50:52.890Z,12.20
2018-05-10T21:53:21.198Z,12.20
2018-05-10T21:55:49.441Z,12.20
2018-05-10T21:58:17.700Z,12.20
2018-05-10T22:00:45.976Z,12.10
2018-05-10T22:03:14.236Z,12.10
2018-05-10T22:05:43.277Z,12.20
2018-05-10T22:08:11.543Z,12.10
2018-05-10T22:10:39.799Z,12.20
2018-05-10T22:13:08.060Z,12.20
2018-05-10T22:15:37.089Z,12.20
2018-05-10T22:18:05.362Z,12.20
2018-05-10T22:20:33.620Z,12.20
2018-05-10T22:23:01.875Z,12.20
2018-05-10T22:25:30.907Z,12.20
2018-05-10T22:27:59.176Z,12.20
2018-05-10T22:30:27.443Z,12.20
2018-05-10T22:32:55.703Z,12.20
2018-05-10T22:35:24.814Z,12.10
2018-05-10T22:37:53.003Z,12.10
2018-05-10T22:40:21.279Z,12.00
2018-05-10T22:42:49.534Z,12.10
2018-05-10T22:45:17.799Z,12.10
2018-05-10T22:47:46.826Z,12.10
2018-05-10T22:50:15.084Z,12.00
2018-05-10T22:52:43.338Z,12.10
2018-05-10T22:55:12.386Z,12.10
2018-05-10T22:57:40.644Z,12.00
2018-05-10T23:00:08.908Z,12.00
2018-05-10T23:02:37.173Z,12.00
2018-05-10T23:05:05.448Z,12.00
2018-05-10T23:07:33.707Z,12.00
2018-05-10T23:10:02.744Z,12.00
2018-05-10T23:12:31.015Z,12.00
2018-05-10T23:14:59.277Z,12.00
2018-05-10T23:17:27.548Z,12.00
2018-05-10T23:19:55.814Z,11.90
2018-05-10T23:22:24.852Z,11.90
2018-05-10T23:24:53.114Z,11.90
2018-05-10T23:27:21.391Z,11.90
2018-05-10T23:29:49.662Z,11.90
2018-05-10T23:32:17.936Z,11.90
2018-05-10T23:34:46.192Z,11.90
2018-05-10T23:37:14.470Z,11.90
2018-05-10T23:39:43.493Z,11.90
2018-05-10T23:42:11.765Z,11.90
2018-05-10T23:44:40.022Z,11.90
2018-05-10T23:47:08.285Z,11.90
2018-05-10T23:49:36.551Z,11.90
2018-05-10T23:52:05.599Z,11.80
2018-05-10T23:54:33.872Z,11.80
2018-05-10T23:57:02.133Z,11.80
2018-05-10T23:59:30.412Z,11.80
